Time;durP1;ratioP1;P1;durP2;ratioP2;P2;SDS_P1;SDS_P2;PMS_P1;PMS_P2;Temp;Humidity;BMP_temperature;BMP_pressure;BME280_temperature;BME280_humidity;BME280_pressure;Samples;Min_cycle;Max_cycle;Signal;HPM_P1;HPM_P2
2021/09/04 00:00:53;;;;;;;9.52;5.03;;;15.70;99.90;;;;;;5096414;28;20445;-68
2021/09/04 00:03:18;;;;;;;9.45;5.13;;;15.70;99.90;;;;;;5096441;28;20399;-68
2021/09/04 00:05:44;;;;;;;11.65;5.32;;;15.70;99.90;;;;;;5095154;28;20260;-68
2021/09/04 00:08:09;;;;;;;9.05;4.97;;;15.60;99.90;;;;;;5096382;28;20036;-68
2021/09/04 00:10:35;;;;;;;8.93;4.50;;;15.70;99.90;;;;;;5096216;28;20448;-68
2021/09/04 00:13:01;;;;;;;10.73;4.85;;;15.60;99.90;;;;;;5095006;28;20051;-68
2021/09/04 00:15:26;;;;;;;9.05;4.85;;;15.70;99.90;;;;;;5095076;28;20044;-68
2021/09/04 00:17:53;;;;;;;9.70;4.40;;;15.70;99.90;;;;;;5096086;28;20036;-68
2021/09/04 00:20:19;;;;;;;12.40;4.47;;;15.50;99.90;;;;;;5095651;28;20150;-68
2021/09/04 00:22:46;;;;;;;7.85;4.97;;;15.60;99.90;;;;;;5095865;28;20119;-68
2021/09/04 00:25:12;;;;;;;12.00;5.35;;;15.60;99.90;;;;;;5096222;28;20040;-67
2021/09/04 00:27:37;;;;;;;9.07;5.03;;;15.50;99.90;;;;;;5095869;28;20118;-68
2021/09/04 00:30:04;;;;;;;10.77;5.10;;;15.50;99.90;;;;;;5095694;28;20445;-68
2021/09/04 00:32:30;;;;;;;13.55;6.60;;;15.50;99.90;;;;;;5095874;28;20460;-68
2021/09/04 00:34:55;;;;;;;9.55;4.95;;;15.50;99.90;;;;;;5095685;28;20047;-68
2021/09/04 00:37:21;;;;;;;11.43;5.57;;;15.50;99.90;;;;;;5095971;28;20075;-68
2021/09/04 00:39:46;;;;;;;13.68;6.30;;;15.50;99.90;;;;;;5094454;28;20036;-68
2021/09/04 00:42:12;;;;;;;12.95;5.88;;;15.60;99.90;;;;;;5095723;28;20521;-68
2021/09/04 00:44:38;;;;;;;13.00;5.32;;;15.60;99.90;;;;;;5094208;28;20156;-68
2021/09/04 00:47:09;;;;;;;13.35;4.97;;;15.70;99.90;;;;;;5095595;28;20388;-68
2021/09/04 00:49:35;;;;;;;6.68;3.95;;;15.70;99.90;;;;;;5095437;28;20130;-68
2021/09/04 00:52:02;;;;;;;9.48;5.15;;;15.60;99.90;;;;;;5095670;28;20036;-68
2021/09/04 00:54:27;;;;;;;9.93;3.88;;;15.70;99.90;;;;;;5095376;28;20048;-68
2021/09/04 00:56:53;;;;;;;9.05;4.05;;;15.60;99.90;;;;;;5095739;28;20044;-68
2021/09/04 00:59:20;;;;;;;8.13;4.43;;;15.60;99.90;;;;;;5093867;28;20154;-68
2021/09/04 01:01:46;;;;;;;7.00;3.95;;;15.50;99.90;;;;;;5093924;28;20051;-68
2021/09/04 01:04:13;;;;;;;7.50;4.25;;;15.60;99.90;;;;;;5095118;28;20032;-68
2021/09/04 01:06:39;;;;;;;9.38;4.55;;;15.60;99.90;;;;;;5093830;28;20044;-68
2021/09/04 01:09:05;;;;;;;10.10;4.47;;;15.60;99.90;;;;;;5094853;28;20111;-68
2021/09/04 01:11:30;;;;;;;7.45;4.10;;;15.60;99.90;;;;;;5095399;28;20480;-68
2021/09/04 01:13:56;;;;;;;12.13;4.40;;;15.60;99.90;;;;;;5095002;28;20085;-68
2021/09/04 01:16:22;;;;;;;8.10;4.18;;;15.50;99.90;;;;;;5095027;28;20148;-68
2021/09/04 01:18:48;;;;;;;8.77;4.53;;;15.60;99.90;;;;;;5093842;28;20127;-68
2021/09/04 01:21:14;;;;;;;8.50;4.05;;;15.60;99.90;;;;;;5095068;28;20043;-69
2021/09/04 01:23:40;;;;;;;5.13;2.78;;;15.50;99.90;;;;;;5094016;28;20040;-69
2021/09/04 01:26:07;;;;;;;7.47;3.97;;;15.50;99.90;;;;;;5095208;28;20070;-69
2021/09/04 01:28:37;;;;;;;7.72;3.42;;;15.60;99.90;;;;;;5094486;28;20480;-69
2021/09/04 01:31:05;;;;;;;8.73;3.63;;;15.50;99.90;;;;;;5094809;28;20044;-68
2021/09/04 01:33:30;;;;;;;6.25;3.30;;;15.50;99.90;;;;;;5093520;28;20138;-69
2021/09/04 01:35:56;;;;;;;6.40;3.00;;;15.60;99.90;;;;;;5093608;28;20147;-68
2021/09/04 01:38:22;;;;;;;8.57;3.75;;;15.60;99.90;;;;;;5094723;28;20040;-68
2021/09/04 01:40:47;;;;;;;7.07;3.20;;;15.60;99.90;;;;;;5094453;28;20472;-68
2021/09/04 01:43:13;;;;;;;4.80;3.05;;;15.50;99.90;;;;;;5094734;28;20036;-68
2021/09/04 01:45:39;;;;;;;4.15;2.70;;;15.60;99.90;;;;;;5094669;28;20078;-68
2021/09/04 01:48:04;;;;;;;9.07;3.40;;;15.60;99.90;;;;;;5094273;28;20452;-68
2021/09/04 01:50:31;;;;;;;5.82;3.25;;;15.60;99.90;;;;;;5094047;28;20161;-68
2021/09/04 01:52:57;;;;;;;9.93;3.85;;;15.50;99.90;;;;;;5094454;28;20032;-68
2021/09/04 01:55:25;;;;;;;8.40;3.15;;;15.50;99.90;;;;;;5094676;28;20040;-69
2021/09/04 01:57:51;;;;;;;5.82;3.58;;;15.50;99.90;;;;;;5094766;28;20081;-68
2021/09/04 02:00:17;;;;;;;6.60;4.20;;;15.50;99.90;;;;;;5094056;28;20448;-69
2021/09/04 02:02:43;;;;;;;8.95;3.90;;;15.50;99.90;;;;;;5092824;28;20081;-68
2021/09/04 02:05:11;;;;;;;8.82;3.40;;;15.40;99.90;;;;;;5092787;28;20051;-68
2021/09/04 02:07:40;;;;;;;9.25;4.38;;;15.50;99.90;;;;;;5094136;28;20090;-68
2021/09/04 02:10:07;;;;;;;5.93;3.70;;;15.40;99.90;;;;;;5093822;28;20076;-68
2021/09/04 02:12:32;;;;;;;6.60;3.63;;;15.40;99.90;;;;;;5094073;28;20040;-68
2021/09/04 02:14:58;;;;;;;9.07;3.90;;;15.40;99.90;;;;;;5093353;28;20043;-68
2021/09/04 02:17:24;;;;;;;9.95;4.40;;;15.50;99.90;;;;;;5094490;28;20115;-68
2021/09/04 02:19:49;;;;;;;7.70;3.97;;;15.50;99.90;;;;;;5093425;28;20476;-68
2021/09/04 02:22:15;;;;;;;10.48;4.55;;;15.40;99.90;;;;;;5094026;28;20123;-68
2021/09/04 02:24:40;;;;;;;6.90;4.00;;;15.50;99.90;;;;;;5094119;28;20362;-68
2021/09/04 02:27:07;;;;;;;7.63;3.70;;;15.40;99.90;;;;;;5092804;28;20078;-68
2021/09/04 02:29:33;;;;;;;6.88;3.30;;;15.40;99.90;;;;;;5093714;28;20115;-67
2021/09/04 02:31:58;;;;;;;7.15;3.10;;;15.40;99.90;;;;;;5092588;28;20120;-68
2021/09/04 02:34:24;;;;;;;4.80;2.70;;;15.40;99.90;;;;;;5094012;28;20028;-68
2021/09/04 02:36:49;;;;;;;4.88;2.75;;;15.40;99.90;;;;;;5092443;28;20458;-68
2021/09/04 02:39:15;;;;;;;5.40;2.97;;;15.40;99.90;;;;;;5093290;28;20040;-68
2021/09/04 02:41:42;;;;;;;11.95;3.70;;;15.40;99.90;;;;;;5093565;28;20115;-68
2021/09/04 02:44:08;;;;;;;11.40;4.18;;;15.40;99.90;;;;;;5092226;28;20044;-68
2021/09/04 02:46:34;;;;;;;7.93;3.92;;;15.40;99.90;;;;;;5092125;28;20047;-67
2021/09/04 02:48:59;;;;;;;8.27;3.97;;;15.40;99.90;;;;;;5093303;28;20036;-68
2021/09/04 02:51:25;;;;;;;11.95;4.47;;;15.40;99.90;;;;;;5093476;28;20043;-68
2021/09/04 02:53:50;;;;;;;8.30;4.45;;;15.40;99.90;;;;;;5093566;28;20475;-68
2021/09/04 02:56:16;;;;;;;8.50;4.28;;;15.40;99.90;;;;;;5093825;28;20040;-68
2021/09/04 02:58:41;;;;;;;8.20;4.00;;;15.40;99.90;;;;;;5091968;28;20506;-68
2021/09/04 03:01:07;;;;;;;7.32;3.95;;;15.40;99.90;;;;;;5093763;28;20036;-68
2021/09/04 03:03:33;;;;;;;9.10;4.07;;;15.40;99.90;;;;;;5093460;28;20481;-68
2021/09/04 03:06:00;;;;;;;7.38;3.67;;;15.40;99.90;;;;;;5091791;28;20043;-68
2021/09/04 03:08:27;;;;;;;6.85;3.88;;;15.40;99.90;;;;;;5093102;28;20051;-68
2021/09/04 03:10:52;;;;;;;6.95;4.38;;;15.40;99.90;;;;;;5091955;28;20115;-68
2021/09/04 03:13:18;;;;;;;7.82;3.97;;;15.40;99.90;;;;;;5091777;28;20131;-68
2021/09/04 03:15:44;;;;;;;6.75;3.15;;;15.40;99.90;;;;;;5093472;28;20517;-68
2021/09/04 03:18:10;;;;;;;9.13;3.05;;;15.40;99.90;;;;;;5093350;28;20040;-68
2021/09/04 03:20:35;;;;;;;6.82;3.10;;;15.40;99.90;;;;;;5091344;28;20059;-68
2021/09/04 03:23:01;;;;;;;9.55;2.88;;;15.30;99.90;;;;;;5094705;28;20119;-68
2021/09/04 03:25:27;;;;;;;8.07;3.08;;;15.40;99.90;;;;;;5097348;28;20133;-68
2021/09/04 03:27:52;;;;;;;8.43;2.83;;;15.30;99.90;;;;;;5097172;28;20399;-68
2021/09/04 03:30:18;;;;;;;6.30;2.72;;;15.30;99.90;;;;;;5095649;28;20044;-68
2021/09/04 03:32:43;;;;;;;5.75;2.55;;;15.30;99.90;;;;;;5095808;28;20036;-68
2021/09/04 03:35:10;;;;;;;9.93;3.35;;;15.40;99.90;;;;;;5097342;28;20042;-68
2021/09/04 03:37:35;;;;;;;6.63;2.90;;;15.40;99.90;;;;;;5097156;28;20036;-68
2021/09/04 03:40:02;;;;;;;8.63;3.88;;;15.30;99.90;;;;;;5096717;28;20082;-68
2021/09/04 03:42:27;;;;;;;8.60;3.42;;;15.30;99.90;;;;;;5096961;28;20075;-68
2021/09/04 03:44:53;;;;;;;6.38;2.85;;;15.40;99.90;;;;;;5096594;28;20063;-68
2021/09/04 03:47:19;;;;;;;4.53;3.17;;;15.30;99.90;;;;;;5097100;28;20036;-68
2021/09/04 03:49:44;;;;;;;7.93;3.53;;;15.30;99.90;;;;;;5078903;28;20538;-68
2021/09/04 03:52:10;;;;;;;7.25;3.40;;;15.30;99.90;;;;;;5097113;28;20036;-68
2021/09/04 03:54:35;;;;;;;7.65;3.20;;;15.30;99.90;;;;;;5095463;28;20048;-68
2021/09/04 03:57:01;;;;;;;10.35;3.00;;;15.40;99.90;;;;;;5097299;28;20084;-68
2021/09/04 03:59:27;;;;;;;6.32;3.10;;;15.30;99.90;;;;;;5095575;28;20115;-68
2021/09/04 04:01:52;;;;;;;7.60;3.60;;;15.30;99.90;;;;;;5096712;28;20443;-68
2021/09/04 04:04:18;;;;;;;6.43;3.10;;;15.30;99.90;;;;;;5096512;28;20040;-68
2021/09/04 04:06:43;;;;;;;6.88;3.33;;;15.30;99.90;;;;;;5096684;28;20073;-68
2021/09/04 04:09:09;;;;;;;7.10;3.45;;;15.30;99.90;;;;;;5095835;28;20036;-68
2021/09/04 04:11:35;;;;;;;8.65;3.55;;;15.30;99.90;;;;;;5095274;28;20036;-67
2021/09/04 04:14:00;;;;;;;5.57;2.67;;;15.30;99.90;;;;;;5096618;28;20036;-68
2021/09/04 04:16:26;;;;;;;4.68;2.88;;;15.30;99.90;;;;;;5096471;28;20040;-68
2021/09/04 04:18:51;;;;;;;4.53;2.95;;;15.30;99.90;;;;;;5095950;28;20090;-68
2021/09/04 04:21:17;;;;;;;5.65;2.80;;;15.30;99.90;;;;;;5094727;28;20131;-68
2021/09/04 04:23:43;;;;;;;8.68;3.17;;;15.30;99.90;;;;;;5095117;28;20048;-68
2021/09/04 04:26:08;;;;;;;6.05;2.85;;;15.30;99.90;;;;;;5095144;28;20071;-68
2021/09/04 04:28:34;;;;;;;6.68;3.30;;;15.30;99.90;;;;;;5094360;28;20044;-68
2021/09/04 04:31:04;;;;;;;5.65;2.95;;;15.20;99.90;;;;;;5093467;28;20031;-68
2021/09/04 04:33:29;;;;;;;9.15;3.30;;;15.20;99.90;;;;;;5094647;28;20047;-68
2021/09/04 04:35:57;;;;;;;7.68;3.28;;;15.20;99.90;;;;;;5094829;28;20115;-68
2021/09/04 04:38:23;;;;;;;8.23;3.67;;;15.20;99.90;;;;;;5094696;28;20036;-68
2021/09/04 04:40:49;;;;;;;7.85;3.30;;;15.20;99.90;;;;;;5094407;28;20040;-68
2021/09/04 04:43:14;;;;;;;4.93;2.97;;;15.30;99.90;;;;;;5094733;28;20476;-68
2021/09/04 04:45:40;;;;;;;7.47;3.67;;;15.30;99.90;;;;;;5094600;28;20131;-68
2021/09/04 04:48:05;;;;;;;6.53;3.30;;;15.30;99.90;;;;;;5093399;28;20496;-69
2021/09/04 04:50:31;;;;;;;7.70;3.35;;;15.20;99.90;;;;;;5094219;28;20488;-68
2021/09/04 04:53:00;;;;;;;6.05;3.30;;;15.20;99.90;;;;;;5095050;28;20036;-68
2021/09/04 04:55:25;;;;;;;5.22;3.30;;;15.30;99.90;;;;;;5093535;28;20044;-68
2021/09/04 04:57:51;;;;;;;10.00;3.78;;;15.30;99.90;;;;;;5076160;28;20048;-68
2021/09/04 05:00:17;;;;;;;6.85;3.30;;;15.30;99.90;;;;;;5094122;28;20036;-68
2021/09/04 05:02:43;;;;;;;6.68;3.17;;;15.30;99.90;;;;;;5094161;28;20484;-68
2021/09/04 05:05:09;;;;;;;7.72;3.00;;;15.30;99.90;;;;;;5094553;28;20047;-68
2021/09/04 05:07:34;;;;;;;7.22;2.80;;;15.30;99.90;;;;;;5092887;28;20063;-68
2021/09/04 05:10:01;;;;;;;9.77;3.30;;;15.30;99.90;;;;;;5093810;28;20472;-68
2021/09/04 05:12:26;;;;;;;6.70;3.50;;;15.30;99.90;;;;;;5094024;28;20043;-68
2021/09/04 05:14:52;;;;;;;7.80;3.58;;;15.30;99.90;;;;;;5092756;28;20043;-68
2021/09/04 05:17:17;;;;;;;7.65;3.63;;;15.30;99.90;;;;;;5094086;28;20051;-68
2021/09/04 05:19:43;;;;;;;6.43;3.58;;;15.30;99.90;;;;;;5055459;28;1059270;-68
2021/09/04 05:22:08;;;;;;;6.13;3.20;;;15.30;99.90;;;;;;5095180;28;20044;-68
2021/09/04 05:24:34;;;;;;;5.75;2.92;;;15.30;99.90;;;;;;5095113;28;20119;-68
2021/09/04 05:27:00;;;;;;;7.80;3.67;;;15.30;99.90;;;;;;5094812;28;20124;-68
2021/09/04 05:29:26;;;;;;;10.18;3.33;;;15.20;99.90;;;;;;5094647;28;20036;-68
2021/09/04 05:31:52;;;;;;;7.45;3.75;;;15.20;99.90;;;;;;5095257;28;20037;-68
2021/09/04 05:34:18;;;;;;;9.48;3.60;;;15.30;99.90;;;;;;5094834;28;20090;-68
2021/09/04 05:36:44;;;;;;;6.30;3.22;;;15.30;99.90;;;;;;5094770;28;20067;-68
2021/09/04 05:39:09;;;;;;;4.53;3.08;;;15.30;99.90;;;;;;5094314;28;20028;-67
2021/09/04 05:41:35;;;;;;;6.70;3.58;;;15.30;99.90;;;;;;5094447;28;20036;-68
2021/09/04 05:44:00;;;;;;;7.35;3.53;;;15.30;99.90;;;;;;5094762;28;20082;-68
2021/09/04 05:46:27;;;;;;;9.35;3.58;;;15.30;99.90;;;;;;5094023;28;20124;-68
2021/09/04 05:48:52;;;;;;;7.95;3.25;;;15.40;99.90;;;;;;5094502;28;20032;-68
2021/09/04 05:51:18;;;;;;;6.65;3.20;;;15.40;99.90;;;;;;5094499;28;20070;-68
2021/09/04 05:53:43;;;;;;;5.75;3.10;;;15.40;99.90;;;;;;5094305;28;20450;-68
2021/09/04 05:56:09;;;;;;;10.10;3.53;;;15.40;99.90;;;;;;5094291;28;20068;-68
2021/09/04 05:58:35;;;;;;;12.10;4.13;;;15.50;99.90;;;;;;5094054;28;20109;-68
2021/09/04 06:01:00;;;;;;;7.85;3.05;;;15.40;99.90;;;;;;5094435;28;20036;-68
2021/09/04 06:03:26;;;;;;;7.90;3.55;;;15.50;99.90;;;;;;5094167;28;20110;-68
2021/09/04 06:05:54;;;;;;;8.60;3.63;;;15.50;99.90;;;;;;5076054;28;20048;-68
2021/09/04 06:08:20;;;;;;;6.15;2.70;;;15.50;99.90;;;;;;5094202;28;20040;-68
2021/09/04 06:10:46;;;;;;;8.13;3.78;;;15.40;99.90;;;;;;5094166;28;20040;-67
2021/09/04 06:13:11;;;;;;;6.05;3.65;;;15.40;99.90;;;;;;5094378;28;20035;-68
2021/09/04 06:15:37;;;;;;;9.88;3.63;;;15.40;99.90;;;;;;5094146;28;20048;-68
2021/09/04 06:18:02;;;;;;;7.45;3.00;;;15.50;99.90;;;;;;5093942;28;20400;-68
2021/09/04 06:20:28;;;;;;;6.20;3.33;;;15.50;99.90;;;;;;5093480;28;20128;-68
2021/09/04 06:22:54;;;;;;;4.70;3.08;;;15.60;99.90;;;;;;5093891;28;20047;-68
2021/09/04 06:25:20;;;;;;;6.25;3.35;;;15.60;99.90;;;;;;5092319;28;20044;-68
2021/09/04 06:27:48;;;;;;;5.68;2.70;;;15.60;99.90;;;;;;5093792;28;20127;-68
2021/09/04 06:30:13;;;;;;;5.32;2.20;;;15.60;99.90;;;;;;5093379;28;20040;-68
2021/09/04 06:32:39;;;;;;;8.15;2.90;;;15.70;99.90;;;;;;5093828;28;20040;-68
2021/09/04 06:35:05;;;;;;;10.02;2.88;;;15.80;99.90;;;;;;5093961;28;20047;-68
2021/09/04 06:37:31;;;;;;;4.82;2.28;;;15.60;99.90;;;;;;5094045;28;20044;-68
2021/09/04 06:39:56;;;;;;;8.57;3.08;;;15.70;99.90;;;;;;5093431;28;20545;-67
2021/09/04 06:42:22;;;;;;;9.38;3.53;;;15.80;99.90;;;;;;5092241;28;20044;-68
2021/09/04 06:44:47;;;;;;;11.15;3.35;;;15.70;99.90;;;;;;5093481;28;20055;-68
2021/09/04 06:47:13;;;;;;;5.47;3.17;;;15.80;99.90;;;;;;5093710;28;20036;-68
2021/09/04 06:49:39;;;;;;;4.88;2.17;;;15.80;99.90;;;;;;5093328;28;20085;-68
2021/09/04 06:52:04;;;;;;;6.25;2.30;;;15.90;99.90;;;;;;5093254;28;20032;-68
2021/09/04 06:54:30;;;;;;;4.90;2.17;;;15.90;99.90;;;;;;5093538;28;20071;-68
2021/09/04 06:56:55;;;;;;;4.03;1.92;;;15.90;99.90;;;;;;5093345;28;20040;-67
2021/09/04 06:59:22;;;;;;;6.38;2.35;;;15.90;99.90;;;;;;5092962;28;20040;-68
2021/09/04 07:01:49;;;;;;;3.80;1.95;;;15.90;99.90;;;;;;5093521;28;20032;-67
2021/09/04 07:04:15;;;;;;;5.40;2.78;;;15.90;99.90;;;;;;5093202;28;20480;-68
2021/09/04 07:06:42;;;;;;;8.82;2.65;;;15.90;99.90;;;;;;5093179;28;20089;-67
2021/09/04 07:09:08;;;;;;;5.18;2.65;;;16.00;99.90;;;;;;5092845;28;20075;-68
2021/09/04 07:11:33;;;;;;;4.28;2.22;;;16.00;99.90;;;;;;5093009;28;20074;-68
2021/09/04 07:13:59;;;;;;;5.35;2.28;;;16.10;99.90;;;;;;5091980;28;20028;-68
2021/09/04 07:16:25;;;;;;;5.53;2.70;;;16.00;99.90;;;;;;5093050;28;20438;-67
2021/09/04 07:18:51;;;;;;;3.50;1.92;;;16.10;99.90;;;;;;5092699;28;20085;-69
2021/09/04 07:21:16;;;;;;;7.63;2.47;;;16.10;99.90;;;;;;5075079;28;20062;-67
2021/09/04 07:23:45;;;;;;;6.38;2.35;;;16.20;99.90;;;;;;5092957;28;20478;-68
2021/09/04 07:26:10;;;;;;;6.28;2.67;;;16.20;99.90;;;;;;5092614;28;20069;-68
2021/09/04 07:28:36;;;;;;;5.75;2.50;;;16.20;99.90;;;;;;5091647;28;20048;-68
2021/09/04 07:31:02;;;;;;;4.43;2.30;;;16.30;99.90;;;;;;5092875;28;20044;-67
2021/09/04 07:33:28;;;;;;;6.30;2.47;;;16.30;99.90;;;;;;5092347;28;20047;-67
2021/09/04 07:35:53;;;;;;;4.93;2.22;;;16.40;99.90;;;;;;5092880;28;20044;-67
2021/09/04 07:38:19;;;;;;;6.28;2.45;;;16.40;99.90;;;;;;5092732;28;20051;-67
2021/09/04 07:40:45;;;;;;;4.50;2.17;;;16.40;99.90;;;;;;5092665;28;20373;-67
2021/09/04 07:43:11;;;;;;;5.30;2.53;;;16.40;99.90;;;;;;5092858;28;20036;-67
2021/09/04 07:45:38;;;;;;;8.10;2.65;;;16.40;99.90;;;;;;5092506;28;20522;-67
2021/09/04 07:48:05;;;;;;;5.70;2.38;;;16.30;99.90;;;;;;5093243;28;20492;-67
2021/09/04 07:50:31;;;;;;;7.13;1.85;;;16.30;99.90;;;;;;5092126;28;20073;-67
2021/09/04 07:52:57;;;;;;;8.13;2.40;;;16.40;99.90;;;;;;5093106;28;20396;-67
2021/09/04 07:55:22;;;;;;;3.58;1.55;;;16.40;99.90;;;;;;5092672;28;20047;-67
2021/09/04 07:57:48;;;;;;;4.93;2.00;;;16.50;99.90;;;;;;5092738;28;20044;-67
2021/09/04 08:00:14;;;;;;;6.38;2.22;;;16.50;99.90;;;;;;5092830;28;20036;-67
2021/09/04 08:02:40;;;;;;;5.13;2.30;;;16.50;99.90;;;;;;5092495;28;20036;-67
2021/09/04 08:05:07;;;;;;;5.88;1.80;;;16.50;99.90;;;;;;5091551;28;20044;-67
2021/09/04 08:07:33;;;;;;;4.32;2.03;;;16.60;99.90;;;;;;5092860;28;20040;-67
2021/09/04 08:09:59;;;;;;;5.85;2.03;;;16.60;99.90;;;;;;5095200;28;20035;-68
2021/09/04 08:12:24;;;;;;;5.88;2.10;;;16.70;99.90;;;;;;5096428;28;20055;-67
2021/09/04 08:14:51;;;;;;;8.10;2.50;;;16.70;99.90;;;;;;5095073;28;20109;-67
2021/09/04 08:17:16;;;;;;;8.43;2.78;;;16.70;99.90;;;;;;5096352;28;20385;-67
2021/09/04 08:19:42;;;;;;;4.63;2.67;;;16.70;99.90;;;;;;5095465;28;20174;-67
2021/09/04 08:22:08;;;;;;;12.18;3.03;;;16.70;99.90;;;;;;5096351;28;20119;-68
2021/09/04 08:24:34;;;;;;;4.93;2.78;;;16.80;99.90;;;;;;5096390;28;20075;-67
2021/09/04 08:27:00;;;;;;;6.22;3.05;;;16.70;99.90;;;;;;5096348;28;20032;-71
2021/09/04 08:29:26;;;;;;;10.05;3.85;;;16.80;99.90;;;;;;5094472;28;20044;-72
2021/09/04 08:31:52;;;;;;;6.65;2.60;;;16.80;99.90;;;;;;5095916;28;20380;-72
2021/09/04 08:34:17;;;;;;;7.47;2.90;;;16.90;99.90;;;;;;5094689;28;20576;-72
2021/09/04 08:36:43;;;;;;;7.28;2.80;;;16.80;99.90;;;;;;5095819;28;20076;-72
2021/09/04 08:39:09;;;;;;;5.88;2.65;;;16.70;99.90;;;;;;5095617;28;20074;-72
2021/09/04 08:41:36;;;;;;;5.55;2.42;;;16.80;99.90;;;;;;5095988;28;20532;-72
2021/09/04 08:44:03;;;;;;;6.05;2.80;;;16.80;99.90;;;;;;5096186;28;20036;-72
2021/09/04 08:46:32;;;;;;;4.57;2.38;;;16.90;99.90;;;;;;5094395;28;20044;-72
2021/09/04 08:48:59;;;;;;;7.47;2.75;;;16.90;99.90;;;;;;5093957;28;20512;-72
2021/09/04 08:51:25;;;;;;;4.70;2.58;;;16.90;99.90;;;;;;5094501;28;20044;-72
2021/09/04 08:53:51;;;;;;;6.65;2.85;;;16.90;99.90;;;;;;5095911;28;20040;-71
2021/09/04 08:56:17;;;;;;;6.57;2.72;;;17.00;99.90;;;;;;5095545;28;20487;-71
2021/09/04 08:58:42;;;;;;;6.80;2.80;;;17.00;99.90;;;;;;5095070;28;20399;-72
2021/09/04 09:01:26;;;;;;;6.03;2.50;;;17.10;99.90;;;;;;5095274;28;20040;-73
2021/09/04 09:03:53;;;;;;;4.93;3.15;;;17.30;99.90;;;;;;5095569;28;20422;-72
2021/09/04 09:06:27;;;;;;;7.78;2.95;;;17.40;99.90;;;;;;5093940;28;20078;-72
2021/09/04 09:08:53;;;;;;;6.50;3.28;;;17.50;99.90;;;;;;5094981;28;20119;-72
2021/09/04 09:11:19;;;;;;;7.10;3.53;;;17.50;99.90;;;;;;5076942;28;20075;-72
2021/09/04 09:13:49;;;;;;;11.77;3.30;;;17.80;99.90;;;;;;5094066;28;20036;-72
2021/09/04 09:16:16;;;;;;;6.38;3.33;;;17.80;99.90;;;;;;5095036;28;20043;-72
2021/09/04 09:18:54;;;;;;;8.88;3.63;;;17.70;99.90;;;;;;5094868;28;20036;-73
2021/09/04 09:21:20;;;;;;;8.55;2.88;;;17.90;99.90;;;;;;5093754;28;20047;-73
2021/09/04 09:23:46;;;;;;;6.03;2.80;;;17.80;99.90;;;;;;5094980;28;20051;-73
2021/09/04 09:26:11;;;;;;;7.45;3.83;;;17.90;99.90;;;;;;5094903;28;20032;-72
2021/09/04 09:28:38;;;;;;;7.50;3.97;;;18.00;99.90;;;;;;5094437;28;20048;-73
2021/09/04 09:31:04;;;;;;;7.32;4.00;;;18.10;99.90;;;;;;5093411;28;20063;-72
2021/09/04 09:33:31;;;;;;;7.65;4.07;;;18.00;99.90;;;;;;5094688;28;20429;-72
2021/09/04 09:36:00;;;;;;;8.32;3.60;;;18.10;99.90;;;;;;5094665;28;20071;-73
2021/09/04 09:38:31;;;;;;;6.88;4.00;;;18.30;99.90;;;;;;5093307;28;20040;-73
2021/09/04 09:40:58;;;;;;;7.70;3.60;;;18.40;99.90;;;;;;5094755;28;20097;-73
2021/09/04 09:43:28;;;;;;;7.20;3.88;;;18.30;99.90;;;;;;5094816;28;20086;-72
2021/09/04 09:46:00;;;;;;;6.65;4.80;;;18.20;99.90;;;;;;5094746;28;20079;-73
2021/09/04 09:48:33;;;;;;;9.38;4.75;;;18.20;99.90;;;;;;5076295;28;20555;-73
2021/09/04 09:51:03;;;;;;;9.88;5.25;;;18.10;99.90;;;;;;5094409;28;20082;-73
2021/09/04 09:53:29;;;;;;;10.02;4.88;;;18.20;99.90;;;;;;5094652;28;20040;-73
2021/09/04 09:55:57;;;;;;;12.43;5.22;;;18.30;99.90;;;;;;5077059;28;20151;-73
2021/09/04 09:58:24;;;;;;;13.60;5.28;;;18.30;99.90;;;;;;5094588;28;20082;-71
2021/09/04 10:00:53;;;;;;;11.07;5.28;;;18.30;99.90;;;;;;5094240;28;20047;-72
2021/09/04 10:03:20;;;;;;;12.75;6.13;;;18.20;99.90;;;;;;5094166;28;20055;-72
2021/09/04 10:05:47;;;;;;;8.57;5.25;;;18.30;99.90;;;;;;5094345;28;20047;-72
2021/09/04 10:08:19;;;;;;;11.73;6.20;;;18.40;99.90;;;;;;5076386;28;20033;-72
2021/09/04 10:10:45;;;;;;;10.60;6.35;;;18.30;99.90;;;;;;5073658;28;20043;-72
2021/09/04 10:13:15;;;;;;;8.48;5.50;;;18.50;99.60;;;;;;5073847;28;20033;-72
2021/09/04 10:15:45;;;;;;;9.55;5.85;;;18.60;99.50;;;;;;5073857;28;20036;-71
2021/09/04 10:18:13;;;;;;;12.50;6.38;;;18.70;99.50;;;;;;5072969;28;20052;-72
2021/09/04 10:20:41;;;;;;;12.02;6.10;;;18.80;99.80;;;;;;5072357;28;20052;-72
2021/09/04 10:23:20;;;;;;;10.75;5.82;;;19.00;99.50;;;;;;5073725;28;20123;-71
2021/09/04 10:25:46;;;;;;;12.32;6.15;;;18.90;99.80;;;;;;5073667;28;20076;-72
2021/09/04 10:28:15;;;;;;;13.13;7.47;;;18.80;99.20;;;;;;5073657;28;20159;-71
2021/09/04 10:30:43;;;;;;;9.57;5.93;;;19.00;97.90;;;;;;5073258;28;20045;-71
2021/09/04 10:33:16;;;;;;;12.48;6.57;;;19.00;96.70;;;;;;5071808;28;20047;-71
2021/09/04 10:35:51;;;;;;;13.60;6.55;;;19.00;96.40;;;;;;5073348;28;20424;-72
2021/09/04 10:38:19;;;;;;;15.73;7.00;;;19.10;96.40;;;;;;5073488;28;20063;-72
2021/09/04 10:41:12;;;;;;;12.45;6.38;;;18.90;97.60;;;;;;5071748;28;20488;-72
2021/09/04 10:43:42;;;;;;;13.50;6.93;;;19.10;96.70;;;;;;5073263;28;20094;-72
2021/09/04 10:46:11;;;;;;;12.93;6.85;;;19.10;96.60;;;;;;5073530;28;20127;-72
2021/09/04 10:48:37;;;;;;;14.90;6.55;;;19.20;96.40;;;;;;5071632;28;20052;-72
2021/09/04 10:51:08;;;;;;;15.15;6.72;;;19.10;97.10;;;;;;5073288;28;20051;-72
2021/09/04 10:53:50;;;;;;;13.45;6.80;;;19.10;96.30;;;;;;5071969;28;20041;-72
2021/09/04 10:56:17;;;;;;;16.92;7.55;;;19.20;96.90;;;;;;5073562;28;20040;-71
2021/09/04 10:58:42;;;;;;;12.27;7.45;;;19.30;95.90;;;;;;5071483;28;20044;-72
2021/09/04 11:01:10;;;;;;;14.07;6.97;;;19.40;95.10;;;;;;5071963;28;20047;-72
2021/09/04 11:03:41;;;;;;;13.55;7.22;;;19.40;95.80;;;;;;5073380;28;20086;-72
2021/09/04 11:06:07;;;;;;;13.10;7.18;;;19.50;95.70;;;;;;5073113;28;20040;-71
2021/09/04 11:08:38;;;;;;;15.60;8.25;;;19.40;95.70;;;;;;5071647;28;20428;-72
2021/09/04 11:11:16;;;;;;;15.70;9.27;;;19.50;95.70;;;;;;5073083;28;20040;-72
2021/09/04 11:13:52;;;;;;;16.65;8.20;;;19.40;96.30;;;;;;5073108;28;20036;-72
2021/09/04 11:16:34;;;;;;;11.93;7.90;;;19.00;96.40;;;;;;5074349;28;20439;-72
2021/09/04 11:19:02;;;;;;;13.90;7.88;;;19.10;97.00;;;;;;5071083;28;20048;-72
2021/09/04 11:21:27;;;;;;;14.10;7.07;;;19.30;96.80;;;;;;5072844;28;20511;-72
2021/09/04 11:23:53;;;;;;;14.27;6.95;;;19.50;97.70;;;;;;5072940;28;20076;-72
2021/09/04 11:26:18;;;;;;;10.60;6.72;;;19.50;97.80;;;;;;5072744;28;20087;-71
2021/09/04 11:28:56;;;;;;;12.55;6.22;;;19.50;97.40;;;;;;5072574;28;20040;-71
2021/09/04 11:31:22;;;;;;;9.93;5.68;;;19.50;95.60;;;;;;5072781;28;20068;-72
2021/09/04 11:33:55;;;;;;;11.88;6.57;;;19.40;96.20;;;;;;5072737;28;20033;-72
2021/09/04 11:36:31;;;;;;;11.50;6.88;;;19.50;96.40;;;;;;5072936;28;20399;-72
2021/09/04 11:38:58;;;;;;;12.57;5.82;;;19.50;95.80;;;;;;5054352;28;20053;-72
2021/09/04 11:41:24;;;;;;;10.73;6.32;;;19.40;95.50;;;;;;5072467;28;20082;-69
2021/09/04 11:43:50;;;;;;;12.90;6.38;;;19.80;95.40;;;;;;5074339;28;20496;-68
2021/09/04 11:46:21;;;;;;;15.50;6.00;;;19.90;95.70;;;;;;5077014;28;20091;-68
2021/09/04 11:48:52;;;;;;;11.30;6.18;;;20.00;93.90;;;;;;5076545;28;20037;-69
2021/09/04 11:51:18;;;;;;;15.57;5.40;;;20.10;93.50;;;;;;5075488;28;20036;-68
2021/09/04 11:53:43;;;;;;;13.30;6.05;;;20.00;92.40;;;;;;5075593;28;20093;-68
2021/09/04 11:56:16;;;;;;;10.18;5.32;;;20.20;92.10;;;;;;5076405;28;20127;-68
2021/09/04 11:58:41;;;;;;;10.60;5.07;;;20.20;91.20;;;;;;5076273;28;20064;-69
2021/09/04 12:01:07;;;;;;;9.95;5.55;;;20.20;92.30;;;;;;5076489;28;20489;-69
2021/09/04 12:03:35;;;;;;;10.77;5.05;;;19.70;92.60;;;;;;5075120;28;20127;-69
2021/09/04 12:06:07;;;;;;;11.10;5.75;;;20.00;92.80;;;;;;5074960;28;20124;-69
2021/09/04 12:08:34;;;;;;;9.77;5.27;;;20.20;91.80;;;;;;5076171;28;20040;-69
2021/09/04 12:11:06;;;;;;;7.70;4.82;;;20.10;91.30;;;;;;5076152;28;20055;-69
2021/09/04 12:13:32;;;;;;;9.77;5.05;;;20.10;91.80;;;;;;5075121;28;20047;-69
2021/09/04 12:16:01;;;;;;;7.82;4.32;;;20.00;92.90;;;;;;5076045;28;20496;-69
2021/09/04 12:18:28;;;;;;;9.90;4.43;;;19.80;93.20;;;;;;5076154;28;20045;-69
2021/09/04 12:20:57;;;;;;;8.20;4.20;;;19.80;93.70;;;;;;5074642;28;20044;-69
2021/09/04 12:23:27;;;;;;;10.13;4.50;;;19.80;93.60;;;;;;5074829;28;20045;-69
2021/09/04 12:26:07;;;;;;;7.65;5.15;;;19.80;93.10;;;;;;5074593;28;20485;-69
2021/09/04 12:28:32;;;;;;;8.95;4.43;;;19.80;93.30;;;;;;5075714;28;20046;-68
2021/09/04 12:31:06;;;;;;;7.22;4.15;;;19.70;92.30;;;;;;5076453;28;20044;-69
2021/09/04 12:33:34;;;;;;;10.40;4.60;;;19.80;93.80;;;;;;5075936;28;20422;-69
2021/09/04 12:36:07;;;;;;;8.73;4.50;;;19.90;94.10;;;;;;5075903;28;20044;-68
2021/09/04 12:38:41;;;;;;;10.18;5.22;;;19.90;92.90;;;;;;5075412;28;20040;-68
2021/09/04 12:41:09;;;;;;;11.00;4.55;;;20.00;93.30;;;;;;5076086;28;20079;-68